Time;durP1;ratioP1;P1;durP2;ratioP2;P2;SDS_P1;SDS_P2;PMS_P1;PMS_P2;Temp;Humidity;BMP_temperature;BMP_pressure;BME280_temperature;BME280_humidity;BME280_pressure;Samples;Min_cycle;Max_cycle;Signal;HPM_P1;HPM_P2
2022/11/18 00:01:36;;;;;;;2.83;0.60;;;;;;;10.90;69.60;97307.03;5127091;29;20075;-84
2022/11/18 00:04:26;;;;;;;1.23;0.57;;;;;;;10.67;70.52;97293.09;5140535;28;20066;-84
2022/11/18 00:07:16;;;;;;;1.27;0.77;;;;;;;10.77;70.29;97302.38;5146943;28;20136;-85
2022/11/18 00:10:07;;;;;;;3.78;1.10;;;;;;;10.86;70.47;97296.97;5146619;28;20055;-84
2022/11/18 00:16:09;;;;;;;1.92;0.88;;;;;;;10.96;70.11;97308.09;5150056;28;20347;-84
2022/11/18 00:18:59;;;;;;;3.40;1.27;;;;;;;10.87;70.94;97296.78;5134284;28;20432;-84
2022/11/18 00:21:49;;;;;;;1.90;1.38;;;;;;;10.82;71.12;97297.31;5146408;28;20053;-84
2022/11/18 00:24:39;;;;;;;2.45;1.00;;;;;;;10.91;70.71;97305.19;5147079;28;20425;-85
2022/11/18 00:27:30;;;;;;;5.28;1.40;;;;;;;11.04;70.55;97315.94;5139768;28;20082;-82
2022/11/18 00:30:20;;;;;;;1.42;1.13;;;;;;;10.93;70.32;97301.34;5142461;28;20062;-85
2022/11/18 00:33:10;;;;;;;1.67;1.00;;;;;;;10.88;70.29;97305.56;5146093;28;20697;-85
2022/11/18 00:36:00;;;;;;;1.52;1.00;;;;;;;10.94;71.07;97313.59;5146332;28;20073;-85
2022/11/18 00:38:51;;;;;;;4.80;1.10;;;;;;;10.92;71.00;97309.47;5146281;28;20676;-85
2022/11/18 00:44:49;;;;;;;1.65;1.05;;;;;;;10.84;71.25;97299.00;5149164;28;20058;-85
2022/11/18 00:47:40;;;;;;;1.70;1.00;;;;;;;10.88;71.02;97311.69;5149778;28;20058;-84
2022/11/18 00:50:29;;;;;;;1.38;1.02;;;;;;;10.69;70.70;97283.09;5150206;28;20054;-84
2022/11/18 00:53:22;;;;;;;1.77;0.90;;;;;;;10.82;71.33;97309.78;5132668;28;20054;-85
2022/11/18 00:56:12;;;;;;;3.90;0.93;;;;;;;10.82;70.63;97307.94;5146283;28;20054;-85
2022/11/18 00:59:02;;;;;;;1.00;0.90;;;;;;;10.85;71.03;97306.75;5145595;28;20047;-84
2022/11/18 01:01:52;;;;;;;3.05;1.00;;;;;;;10.85;70.94;97308.59;5131748;28;20051;-84
2022/11/18 01:04:43;;;;;;;1.08;0.98;;;;;;;10.78;71.42;97296.06;5146091;28;20062;-85
2022/11/18 01:07:33;;;;;;;2.13;1.40;;;;;;;10.70;71.92;97309.44;5125136;28;20194;-84
2022/11/18 01:10:23;;;;;;;3.40;1.73;;;;;;;10.88;71.11;97311.69;5124396;29;20087;-84
2022/11/18 01:13:19;;;;;;;1.92;1.33;;;;;;;10.76;71.52;97323.75;5118798;28;20047;-84
2022/11/18 01:16:10;;;;;;;2.50;1.50;;;;;;;10.65;72.78;97322.41;5144582;28;20138;-84
2022/11/18 01:19:00;;;;;;;4.80;1.80;;;;;;;10.80;72.28;97335.66;5144226;28;20117;-85
2022/11/18 01:21:51;;;;;;;4.05;2.13;;;;;;;10.66;71.52;97316.13;5123782;29;20284;-84
2022/11/18 01:24:41;;;;;;;3.05;1.75;;;;;;;10.43;72.79;97324.19;5137680;28;20445;-84
2022/11/18 01:27:31;;;;;;;3.25;1.67;;;;;;;10.42;72.63;97301.34;5144921;28;20078;-85
2022/11/18 01:30:22;;;;;;;6.55;2.03;;;;;;;10.66;73.06;97339.13;5145595;28;20055;-84
2022/11/18 01:33:12;;;;;;;6.57;1.77;;;;;;;10.89;71.54;97333.72;5146477;28;20076;-85
2022/11/18 01:36:02;;;;;;;3.30;1.80;;;;;;;10.78;71.69;97317.28;5150766;28;20061;-84
2022/11/18 01:38:54;;;;;;;3.38;1.52;;;;;;;10.74;72.13;97326.63;5165307;28;20051;-84
2022/11/18 01:41:44;;;;;;;4.35;1.58;;;;;;;10.82;71.33;97317.72;5136470;28;20050;-85
2022/11/18 01:45:31;;;;;;;1.88;1.48;;;;;;;10.63;72.30;97299.75;5146538;28;20135;-84
2022/11/18 01:48:24;;;;;;;3.53;2.05;;;;;;;10.78;72.33;97330.53;5079349;29;20075;-84
2022/11/18 01:51:17;;;;;;;3.15;2.08;;;;;;;10.71;72.21;97308.44;5071053;29;20067;-85
2022/11/18 01:54:11;;;;;;;5.45;1.80;;;;;;;10.66;72.00;97313.47;5124678;29;20099;-85
2022/11/18 01:57:07;;;;;;;3.05;1.90;;;;;;;10.68;72.85;97324.69;5143407;28;20677;-85
2022/11/18 02:00:01;;;;;;;3.60;1.90;;;;;;;10.67;72.89;97325.72;5125040;29;20051;-84
2022/11/18 02:02:53;;;;;;;2.60;1.65;;;;;;;10.63;72.06;97313.84;5139551;28;20161;-83
2022/11/18 02:05:46;;;;;;;5.15;1.52;;;;;;;10.46;73.06;97315.88;5144200;28;20047;-83
2022/11/18 02:08:38;;;;;;;3.63;1.45;;;;;;;10.30;73.85;97322.19;5144712;28;20105;-83
2022/11/18 02:14:42;;;;;;;2.63;1.10;;;;;;;10.63;72.50;97350.97;5143451;28;20448;-83
2022/11/18 02:18:17;;;;;;;2.33;1.08;;;;;;;10.67;73.05;97365.47;5142610;28;20532;-82
2022/11/18 02:21:16;;;;;;;1.55;1.10;;;;;;;10.65;72.56;97362.19;5097718;28;20084;-83
2022/11/18 02:24:26;;;;;;;1.77;1.05;;;;;;;10.56;73.48;97371.22;5110078;29;20130;-83
2022/11/18 02:27:38;;;;;;;3.20;0.90;;;;;;;10.55;72.82;97369.59;5125089;28;20054;-82
2022/11/18 02:30:37;;;;;;;2.33;1.23;;;;;;;10.64;72.77;97372.97;5142638;28;20333;-83
2022/11/18 02:33:50;;;;;;;2.63;1.08;;;;;;;10.62;71.89;97385.56;5144445;28;20057;-83
2022/11/18 02:37:24;;;;;;;3.65;1.30;;;;;;;10.66;72.48;97376.25;5142528;28;20743;-83
2022/11/18 02:40:14;;;;;;;8.20;1.17;;;;;;;10.67;73.10;97378.72;5109025;28;20182;-82
2022/11/18 02:43:09;;;;;;;3.20;1.10;;;;;;;10.52;72.46;97362.00;5142206;28;20057;-83
2022/11/18 02:46:06;;;;;;;3.97;1.20;;;;;;;10.54;72.94;97368.78;5115168;28;20078;-83
2022/11/18 02:48:57;;;;;;;2.15;0.93;;;;;;;10.62;72.41;97375.78;5142260;28;20053;-82
2022/11/18 02:51:49;;;;;;;2.88;1.00;;;;;;;10.52;73.45;97369.94;5141679;28;20127;-83
2022/11/18 02:54:41;;;;;;;2.83;0.70;;;;;;;10.46;73.87;97383.94;5142474;28;20055;-83
2022/11/18 02:57:32;;;;;;;2.30;0.60;;;;;;;10.40;72.64;97376.69;5142495;28;20565;-83
2022/11/18 03:00:23;;;;;;;1.52;0.43;;;;;;;10.39;73.21;97372.41;5128112;28;20493;-83
2022/11/18 03:03:31;;;;;;;1.42;0.40;;;;;;;10.45;73.31;97419.38;5142351;28;20047;-83
2022/11/18 03:06:31;;;;;;;7.15;0.90;;;;;;;10.46;73.15;97407.78;5128766;28;20074;-83
2022/11/18 03:09:35;;;;;;;4.72;0.60;;;;;;;10.34;72.54;97408.22;5122512;29;20561;-83
2022/11/18 03:12:45;;;;;;;1.52;0.63;;;;;;;10.41;73.15;97397.72;5127802;28;20054;-83
2022/11/18 03:16:00;;;;;;;2.65;0.60;;;;;;;9.87;74.33;97419.88;5143567;28;20117;-83
2022/11/18 03:19:08;;;;;;;2.58;0.65;;;;;;;9.99;74.31;97417.63;5142202;28;20646;-83
2022/11/18 03:22:09;;;;;;;2.72;0.80;;;;;;;10.11;74.11;97405.59;5142257;28;20493;-83
2022/11/18 03:25:29;;;;;;;0.90;0.40;;;;;;;9.90;76.16;97434.59;5143053;28;20117;-83
2022/11/18 03:28:34;;;;;;;1.90;0.70;;;;;;;9.97;75.46;97440.00;5109745;28;20130;-83
2022/11/18 03:31:57;;;;;;;2.08;0.60;;;;;;;9.90;74.21;97447.84;5132209;28;20047;-83
2022/11/18 03:34:51;;;;;;;1.63;0.60;;;;;;;10.16;73.71;97433.38;5136778;28;20453;-82
2022/11/18 03:37:43;;;;;;;1.48;0.50;;;;;;;9.92;75.12;97427.28;5133833;28;20046;-83
2022/11/18 03:40:37;;;;;;;2.85;0.47;;;;;;;10.25;74.69;97454.31;5117707;28;20141;-83
2022/11/18 03:43:34;;;;;;;2.65;0.60;;;;;;;10.23;73.78;97445.75;5134667;28;20739;-83
2022/11/18 03:46:49;;;;;;;1.60;0.55;;;;;;;10.19;73.38;97423.25;5119809;29;20114;-83
2022/11/18 03:49:49;;;;;;;2.88;0.50;;;;;;;10.11;73.03;97413.56;5126639;28;20046;-83
2022/11/18 03:52:40;;;;;;;0.95;0.40;;;;;;;10.11;73.53;97455.09;5145299;28;20050;-83
2022/11/18 03:55:36;;;;;;;0.88;0.20;;;;;;;10.33;72.49;97467.53;5132561;28;20058;-83
2022/11/18 03:58:37;;;;;;;3.03;0.40;;;;;;;10.17;73.01;97477.41;5146951;28;20054;-83
2022/11/18 04:01:43;;;;;;;2.00;0.20;;;;;;;9.68;73.17;97425.66;5146175;28;20145;-83
2022/11/18 04:04:34;;;;;;;3.88;0.50;;;;;;;9.95;72.88;97471.94;5133204;28;20066;-83
2022/11/18 04:07:36;;;;;;;0.52;0.22;;;;;;;10.06;72.73;97470.69;5147253;28;20065;-83
2022/11/18 04:10:35;;;;;;;0.57;0.20;;;;;;;10.06;72.80;97486.56;5123337;29;20087;-82
2022/11/18 04:13:30;;;;;;;1.23;0.30;;;;;;;9.82;73.12;97475.16;5126958;29;20052;-83
2022/11/18 04:16:20;;;;;;;1.45;0.50;;;;;;;10.06;72.22;97476.81;5126196;28;20576;-83
2022/11/18 04:19:10;;;;;;;1.13;0.30;;;;;;;9.98;72.15;97473.41;5126608;28;20063;-83
2022/11/18 04:22:00;;;;;;;1.27;0.40;;;;;;;10.05;71.78;97479.66;5139310;28;20069;-82
2022/11/18 04:24:50;;;;;;;2.85;0.30;;;;;;;10.09;70.95;97488.88;5120895;29;20568;-83
2022/11/18 04:27:39;;;;;;;0.35;0.20;;;;;;;10.08;71.26;97481.94;5138645;28;20095;-81
2022/11/18 04:30:30;;;;;;;1.45;0.40;;;;;;;10.14;71.87;97497.13;5138491;28;20051;-82
2022/11/18 04:33:20;;;;;;;2.45;0.43;;;;;;;10.18;72.17;97482.53;5140465;28;20082;-82
2022/11/18 04:36:10;;;;;;;2.60;0.40;;;;;;;10.19;71.95;97491.28;5145033;28;20615;-83
2022/11/18 04:39:00;;;;;;;0.35;0.20;;;;;;;10.15;72.19;97493.47;5145431;28;20548;-82
2022/11/18 04:41:56;;;;;;;0.93;0.20;;;;;;;9.94;73.06;97494.13;5144323;28;20133;-83
2022/11/18 04:44:46;;;;;;;1.75;0.20;;;;;;;10.11;72.98;97494.84;5145743;28;20054;-83
2022/11/18 04:47:36;;;;;;;0.55;0.35;;;;;;;10.12;71.82;97512.34;5131569;28;20181;-83
2022/11/18 04:50:27;;;;;;;1.85;0.30;;;;;;;10.12;72.49;97499.13;5144364;28;20109;-83
2022/11/18 04:53:17;;;;;;;0.85;0.30;;;;;;;10.01;72.04;97492.41;5145597;28;20105;-83
2022/11/18 04:56:07;;;;;;;0.55;0.32;;;;;;;9.92;71.99;97490.81;5143377;28;20090;-83
2022/11/18 04:58:59;;;;;;;2.20;0.17;;;;;;;9.97;71.80;97511.50;5144322;28;20556;-83
2022/11/18 05:01:50;;;;;;;0.20;0.20;;;;;;;10.04;71.07;97515.09;5143481;28;20058;-83
2022/11/18 05:04:41;;;;;;;0.20;0.17;;;;;;;9.96;71.69;97509.81;5131530;28;20061;-83
2022/11/18 05:07:31;;;;;;;0.75;0.30;;;;;;;9.98;71.68;97515.78;5144115;28;20058;-82
2022/11/18 05:10:21;;;;;;;0.73;0.10;;;;;;;9.83;72.04;97510.41;5157665;28;20061;-82
2022/11/18 05:13:11;;;;;;;4.47;0.25;;;;;;;9.93;70.89;97516.28;5144756;28;20051;-82
2022/11/18 05:16:01;;;;;;;1.25;0.28;;;;;;;9.80;71.66;97516.03;5144081;28;20526;-82
2022/11/18 05:18:52;;;;;;;0.20;0.20;;;;;;;9.98;71.10;97526.38;5144155;28;20061;-83
2022/11/18 05:21:42;;;;;;;4.03;0.20;;;;;;;9.81;71.86;97517.72;5131059;28;20054;-83
2022/11/18 05:24:32;;;;;;;6.15;0.38;;;;;;;9.85;71.24;97527.75;5145337;28;20050;-83
2022/11/18 05:27:22;;;;;;;0.55;0.20;;;;;;;9.54;73.28;97514.56;5144904;28;20628;-83
2022/11/18 05:30:12;;;;;;;1.25;0.30;;;;;;;9.81;71.77;97529.13;5131167;28;20134;-82
2022/11/18 05:33:03;;;;;;;3.20;0.50;;;;;;;9.73;71.78;97541.56;5145135;28;20085;-83
2022/11/18 05:35:52;;;;;;;0.43;0.40;;;;;;;9.76;72.82;97534.09;5146991;28;20058;-82
2022/11/18 05:38:45;;;;;;;1.92;0.40;;;;;;;9.61;71.58;97502.28;5143637;28;20069;-83
2022/11/18 05:44:44;;;;;;;0.88;0.50;;;;;;;9.52;73.20;97547.47;5151987;28;20290;-83
2022/11/18 05:47:58;;;;;;;0.73;0.38;;;;;;;9.77;72.27;97541.06;5123675;28;20102;-82
2022/11/18 05:50:49;;;;;;;0.68;0.40;;;;;;;9.94;72.78;97559.50;5123580;29;20198;-82
2022/11/18 05:53:40;;;;;;;0.80;0.55;;;;;;;9.88;71.85;97561.84;5116351;28;20058;-83
2022/11/18 05:56:43;;;;;;;1.63;0.50;;;;;;;9.64;72.58;97543.44;5143796;28;20050;-83
2022/11/18 05:59:33;;;;;;;0.70;0.40;;;;;;;9.94;72.46;97565.63;5144315;28;20595;-82
2022/11/18 06:02:24;;;;;;;1.30;0.50;;;;;;;9.65;72.54;97524.75;5144799;28;20051;-82
2022/11/18 06:05:17;;;;;;;2.28;0.30;;;;;;;9.85;72.56;97554.25;5145158;28;20420;-82
2022/11/18 06:08:11;;;;;;;1.63;0.50;;;;;;;9.71;72.66;97557.63;5131110;28;20129;-82
2022/11/18 06:11:02;;;;;;;1.00;0.43;;;;;;;9.65;72.19;97555.69;5144305;28;20186;-82
2022/11/18 06:14:00;;;;;;;2.22;0.63;;;;;;;9.89;72.22;97584.66;5132852;28;20186;-82
2022/11/18 06:16:57;;;;;;;1.08;0.47;;;;;;;9.61;71.87;97572.91;5144426;28;20113;-85
2022/11/18 06:19:47;;;;;;;2.45;0.50;;;;;;;9.62;72.10;97577.19;5124224;29;20058;-83
2022/11/18 06:22:38;;;;;;;0.75;0.30;;;;;;;9.46;71.56;97588.66;5152317;28;20094;-84
2022/11/18 06:25:40;;;;;;;1.35;0.35;;;;;;;9.79;71.08;97586.69;5125951;28;20055;-83
2022/11/18 06:28:30;;;;;;;0.77;0.20;;;;;;;9.74;71.28;97573.19;5135157;28;20054;-83
2022/11/18 06:31:20;;;;;;;1.23;0.35;;;;;;;9.69;71.95;97585.25;5142454;28;20047;-83
2022/11/18 06:34:10;;;;;;;2.03;0.38;;;;;;;9.78;70.95;97585.06;5145076;28;20484;-83
2022/11/18 06:37:11;;;;;;;2.17;0.50;;;;;;;9.76;71.57;97588.88;5138502;28;20043;-83
2022/11/18 06:40:02;;;;;;;0.88;0.50;;;;;;;9.73;71.40;97605.91;5156424;28;20046;-82
2022/11/18 06:43:53;;;;;;;3.47;0.30;;;;;;;9.63;71.28;97621.19;5146767;28;20426;-82
2022/11/18 06:49:25;;;;;;;0.77;0.38;;;;;;;9.79;71.75;97623.75;5135012;28;20544;-83
2022/11/18 06:52:15;;;;;;;0.40;0.35;;;;;;;9.87;71.79;97631.69;5131215;28;20091;-83
2022/11/18 06:55:07;;;;;;;1.40;0.40;;;;;;;9.83;71.31;97642.75;5142057;28;20537;-83
2022/11/18 06:57:56;;;;;;;1.02;0.45;;;;;;;9.63;72.12;97626.47;5142847;28;20085;-84
2022/11/18 07:00:46;;;;;;;0.38;0.30;;;;;;;9.64;72.20;97630.78;5141901;28;20065;-83
2022/11/18 07:03:41;;;;;;;0.95;0.43;;;;;;;9.17;72.88;97642.97;5165088;28;20057;-83
2022/11/18 07:06:33;;;;;;;1.58;0.30;;;;;;;9.46;72.96;97660.09;5146528;28;20421;-83
2022/11/18 07:09:23;;;;;;;0.85;0.32;;;;;;;9.53;72.41;97652.31;5147214;28;20505;-83
2022/11/18 07:12:13;;;;;;;2.15;0.43;;;;;;;9.64;72.71;97655.44;5142826;28;20136;-83
2022/11/18 07:15:04;;;;;;;0.98;0.30;;;;;;;9.60;73.02;97669.16;5141340;28;20047;-84
2022/11/18 07:17:54;;;;;;;1.05;0.35;;;;;;;9.50;73.28;97642.88;5121528;28;20055;-83
2022/11/18 07:20:44;;;;;;;0.10;0.10;;;;;;;9.56;71.88;97660.72;5141652;28;20109;-83
2022/11/18 07:23:34;;;;;;;1.30;0.68;;;;;;;9.26;74.02;97683.44;5156607;28;20189;-83
2022/11/18 07:26:24;;;;;;;1.33;0.50;;;;;;;9.53;73.72;97674.28;5142398;28;20117;-83
2022/11/18 07:29:14;;;;;;;0.65;0.40;;;;;;;9.57;72.54;97680.06;5142442;28;20050;-83
2022/11/18 07:32:05;;;;;;;2.25;0.98;;;;;;;9.52;73.50;97679.78;5144389;28;20057;-83
2022/11/18 07:34:55;;;;;;;2.85;0.70;;;;;;;9.14;74.68;97671.59;5142634;28;20572;-82
2022/11/18 07:37:45;;;;;;;1.85;0.70;;;;;;;9.18;73.16;97683.47;5155446;28;20058;-83
2022/11/18 07:40:36;;;;;;;5.10;0.70;;;;;;;9.45;73.04;97689.38;5128331;28;20162;-83
2022/11/18 07:43:26;;;;;;;3.50;1.85;;;;;;;9.45;73.42;97673.50;5143796;28;20137;-82
2022/11/18 07:46:22;;;;;;;0.95;0.60;;;;;;;9.59;71.84;97694.78;5142034;28;20073;-83
2022/11/18 07:49:13;;;;;;;18.25;5.63;;;;;;;9.15;73.15;97702.31;5157127;28;20190;-83
2022/11/18 07:52:03;;;;;;;3.92;0.93;;;;;;;9.35;74.12;97714.19;5121865;29;20426;-83
2022/11/18 07:54:54;;;;;;;1.42;0.80;;;;;;;9.68;72.04;97714.13;5134665;28;20111;-82
2022/11/18 07:57:44;;;;;;;6.78;3.03;;;;;;;9.65;72.80;97703.88;5135210;28;20051;-83
2022/11/18 08:00:34;;;;;;;6.70;3.30;;;;;;;9.82;72.06;97726.66;5121468;29;20740;-83
2022/11/18 08:03:27;;;;;;;12.45;5.13;;;;;;;9.49;73.25;97714.50;5122584;29;20433;-83
2022/11/18 08:06:18;;;;;;;55.50;18.88;;;;;;;9.80;72.03;97726.03;5121439;28;20070;-84
2022/11/18 08:09:08;;;;;;;3.05;2.08;;;;;;;9.67;72.92;97730.16;5136035;28;20163;-83
2022/11/18 08:11:58;;;;;;;6.95;2.03;;;;;;;9.85;72.77;97744.03;5108687;29;20054;-82
2022/11/18 08:14:48;;;;;;;12.35;3.35;;;;;;;9.60;72.72;97730.00;5122648;29;20058;-83
2022/11/18 08:17:38;;;;;;;13.25;4.15;;;;;;;9.90;72.32;97747.00;5124219;28;20388;-82
2022/11/18 08:20:28;;;;;;;7.82;3.38;;;;;;;10.11;72.08;97747.25;5133975;28;20085;-83
2022/11/18 08:23:18;;;;;;;1.67;1.10;;;;;;;10.01;72.64;97740.50;5146635;28;20046;-84
2022/11/18 08:26:12;;;;;;;1.60;0.93;;;;;;;9.96;72.49;97756.06;5146470;28;20098;-83
2022/11/18 08:29:02;;;;;;;2.58;1.05;;;;;;;9.71;73.01;97742.91;5145318;28;20476;-84
2022/11/18 08:31:53;;;;;;;122.75;37.63;;;;;;;9.78;72.68;97740.41;5152741;28;20050;-82
2022/11/18 08:34:43;;;;;;;2.28;1.48;;;;;;;9.87;71.87;97753.47;5145536;28;20420;-83
2022/11/18 08:37:34;;;;;;;7.47;1.05;;;;;;;9.89;72.76;97758.56;5144847;28;20062;-83
2022/11/18 08:40:24;;;;;;;3.30;1.55;;;;;;;9.76;72.81;97737.91;5144459;28;20062;-84
2022/11/18 08:43:14;;;;;;;4.28;2.13;;;;;;;9.87;73.31;97763.22;5131355;28;20670;-83
2022/11/18 08:46:04;;;;;;;5.10;1.30;;;;;;;9.76;73.74;97761.75;5144941;28;20058;-82
2022/11/18 08:48:54;;;;;;;24.30;12.98;;;;;;;9.82;73.68;97769.00;5147067;28;20139;-84
2022/11/18 08:51:44;;;;;;;84.85;38.28;;;;;;;9.92;72.69;97762.72;5147002;28;20162;-82
2022/11/18 08:54:35;;;;;;;2.05;1.65;;;;;;;9.47;74.13;97761.47;5147167;28;20062;-84
2022/11/18 08:57:25;;;;;;;6.15;2.92;;;;;;;9.95;74.16;97775.63;5145467;28;20531;-83
2022/11/18 09:00:16;;;;;;;13.30;6.55;;;;;;;10.05;73.44;97776.25;5145277;28;20425;-83
2022/11/18 09:03:06;;;;;;;6.97;3.35;;;;;;;10.28;72.85;97779.84;5144504;28;20054;-84
2022/11/18 09:06:08;;;;;;;41.15;20.90;;;;;;;10.19;72.89;97793.25;5146066;28;20070;-84
2022/11/18 09:08:59;;;;;;;5.35;1.42;;;;;;;9.64;74.09;97789.56;5147936;28;20524;-85
2022/11/18 09:11:55;;;;;;;2.25;1.60;;;;;;;10.08;72.58;97774.06;5158412;28;20116;-82
2022/11/18 09:14:45;;;;;;;2.97;1.50;;;;;;;10.23;73.66;97784.81;5145024;28;20050;-83
2022/11/18 09:17:56;;;;;;;3.90;2.63;;;;;;;10.18;72.48;97773.06;5155979;28;20062;-83
2022/11/18 09:20:57;;;;;;;2.17;1.17;;;;;;;10.36;72.55;97800.16;5144705;28;20054;-83
2022/11/18 09:23:46;;;;;;;6.15;2.20;;;;;;;10.20;73.00;97792.25;5159212;28;20058;-82
2022/11/18 09:26:37;;;;;;;7.05;2.00;;;;;;;10.19;72.94;97786.13;5159819;28;20139;-83
2022/11/18 09:29:27;;;;;;;3.40;2.28;;;;;;;10.32;72.08;97793.56;5146489;28;20057;-82
2022/11/18 09:32:18;;;;;;;6.18;2.97;;;;;;;10.35;72.48;97804.63;5161571;28;20059;-85
2022/11/18 09:35:08;;;;;;;6.30;2.88;;;;;;;10.46;72.70;97786.72;5147036;28;20058;-84
2022/11/18 09:37:58;;;;;;;15.25;7.20;;;;;;;10.27;72.62;97790.63;5146250;28;20158;-83
2022/11/18 09:41:07;;;;;;;8.95;3.13;;;;;;;10.54;72.88;97811.38;5145366;28;20105;-83
2022/11/18 09:44:03;;;;;;;4.68;2.45;;;;;;;10.06;73.70;97817.63;5145403;28;20140;-83
2022/11/18 09:47:17;;;;;;;2.60;2.10;;;;;;;10.55;73.22;97825.44;5145607;28;20105;-83
2022/11/18 09:50:20;;;;;;;3.33;1.75;;;;;;;10.61;73.41;97827.41;5148076;28;20077;-82
2022/11/18 09:53:31;;;;;;;3.33;1.30;;;;;;;10.43;72.65;97813.56;5144287;28;20049;-83
2022/11/18 09:56:21;;;;;;;2.67;1.35;;;;;;;10.13;73.56;97805.34;5143480;28;20066;-83
2022/11/18 09:59:13;;;;;;;89.32;35.58;;;;;;;10.39;73.56;97805.13;5159035;28;20584;-83
2022/11/18 10:02:42;;;;;;;6.47;3.75;;;;;;;10.50;73.07;97833.09;5144832;28;20058;-83
2022/11/18 10:05:49;;;;;;;4.07;2.15;;;;;;;10.25;74.62;97819.06;5146498;28;20166;-83
2022/11/18 10:08:54;;;;;;;5.50;2.80;;;;;;;10.54;73.62;97834.41;5126207;28;20141;-86
2022/11/18 10:12:26;;;;;;;3.42;1.90;;;;;;;10.48;73.92;97838.56;5139249;28;20057;-84
2022/11/18 10:15:32;;;;;;;5.35;1.85;;;;;;;10.64;73.71;97842.16;5146315;28;20062;-83
2022/11/18 10:18:32;;;;;;;3.67;1.38;;;;;;;10.46;73.96;97850.31;5159614;28;20513;-85
2022/11/18 10:21:48;;;;;;;3.33;1.25;;;;;;;10.64;75.38;97848.28;5153367;28;20220;-83
2022/11/18 10:24:44;;;;;;;4.25;1.70;;;;;;;10.75;73.61;97829.31;5150178;28;20532;-84
2022/11/18 10:27:40;;;;;;;2.25;1.60;;;;;;;10.90;73.73;97840.03;5129507;28;20053;-84
2022/11/18 10:30:30;;;;;;;2.80;1.95;;;;;;;10.77;74.40;97837.13;5142927;28;20056;-84
2022/11/18 10:33:20;;;;;;;2.05;1.60;;;;;;;11.11;74.08;97852.66;5142917;28;20054;-84
2022/11/18 10:36:17;;;;;;;3.40;2.33;;;;;;;10.99;74.07;97844.28;5142443;28;20066;-83
2022/11/18 10:39:07;;;;;;;2.83;1.73;;;;;;;10.98;74.67;97855.06;5142211;28;20062;-84
2022/11/18 10:42:19;;;;;;;9.18;2.28;;;;;;;11.21;73.80;97832.03;5155610;28;20445;-84
2022/11/18 10:45:22;;;;;;;4.63;1.92;;;;;;;10.65;74.94;97839.31;5158118;28;20078;-83
2022/11/18 10:48:14;;;;;;;4.55;2.38;;;;;;;10.88;74.55;97854.44;5143757;28;20065;-83
2022/11/18 10:51:21;;;;;;;4.53;2.30;;;;;;;10.59;75.37;97842.63;5143337;28;20517;-85
2022/11/18 10:54:22;;;;;;;5.10;2.15;;;;;;;10.92;74.57;97843.31;5143038;28;20057;-82
2022/11/18 10:57:24;;;;;;;2.53;2.10;;;;;;;10.54;74.44;97815.84;5142431;28;20062;-84
2022/11/18 11:00:35;;;;;;;3.83;2.42;;;;;;;10.88;73.86;97852.63;5142114;28;20085;-84
2022/11/18 11:03:31;;;;;;;3.65;2.10;;;;;;;10.96;73.40;97841.13;5142569;28;20047;-83
2022/11/18 11:06:30;;;;;;;6.63;2.38;;;;;;;10.28;74.95;97848.72;5141742;28;20043;-83
2022/11/18 11:09:30;;;;;;;9.15;2.80;;;;;;;10.56;73.77;97866.84;5142616;28;20135;-84
2022/11/18 11:12:20;;;;;;;4.38;2.10;;;;;;;10.58;73.95;97854.25;5138318;28;20433;-81
2022/11/18 11:15:15;;;;;;;4.85;2.45;;;;;;;10.80;75.00;97858.81;5154608;28;20099;-82
2022/11/18 11:21:26;;;;;;;5.15;3.13;;;;;;;10.73;74.37;97847.25;5143070;28;20066;-84
2022/11/18 11:24:22;;;;;;;4.75;2.83;;;;;;;11.19;74.12;97860.59;5156351;28;20102;-83
2022/11/18 11:27:40;;;;;;;250.38;70.20;;;;;;;11.29;73.02;97865.63;5133197;28;20122;-81
2022/11/18 11:31:08;;;;;;;29.13;9.13;;;;;;;11.05;73.62;97875.41;5113968;28;20062;-82
2022/11/18 11:34:16;;;;;;;102.07;52.35;;;;;;;11.04;73.66;97870.28;5122342;29;20102;-82
2022/11/18 11:37:14;;;;;;;6.25;2.90;;;;;;;10.68;74.91;97878.72;5122248;28;20414;-82
2022/11/18 11:40:35;;;;;;;5.80;3.88;;;;;;;10.55;74.98;97878.44;5141821;28;20418;-83
2022/11/18 11:43:33;;;;;;;2.80;1.55;;;;;;;10.66;74.28;97880.75;5153783;28;20495;-83
2022/11/18 11:47:45;;;;;;;6.05;2.58;;;;;;;10.89;74.01;97880.78;5124286;28;20055;-84
2022/11/18 11:50:15;;;;;;;4.18;2.15;;;;;;;10.58;74.90;97873.63;5143228;28;20077;-83
2022/11/18 11:53:24;;;;;;;3.25;1.63;;;;;;;11.25;74.35;97881.09;5146307;28;20516;-84
2022/11/18 11:56:30;;;;;;;7.38;2.50;;;;;;;10.67;74.43;97868.31;5157915;28;20113;-82
2022/11/18 12:00:02;;;;;;;2.72;1.88;;;;;;;11.32;73.79;97875.91;5156130;28;20117;-82
2022/11/18 12:03:37;;;;;;;5.10;2.05;;;;;;;10.88;73.87;97880.97;5130056;28;20097;-83
2022/11/18 12:06:50;;;;;;;5.57;1.85;;;;;;;10.68;75.43;97888.50;5134188;28;20082;-83
2022/11/18 12:10:08;;;;;;;2.08;1.48;;;;;;;11.29;71.33;97893.03;5145483;28;20065;-83
2022/11/18 12:13:22;;;;;;;2.63;1.60;;;;;;;10.95;71.06;97896.00;5139146;28;20662;-82
2022/11/18 12:16:34;;;;;;;7.88;3.17;;;;;;;10.84;70.66;97898.22;5131738;28;20174;-83
2022/11/18 12:19:25;;;;;;;2.90;1.38;;;;;;;10.86;70.72;97880.31;5138347;28;20579;-83
2022/11/18 12:22:15;;;;;;;2.88;1.33;;;;;;;10.27;73.40;97886.00;5145667;28;20046;-82
2022/11/18 12:25:44;;;;;;;1.88;0.98;;;;;;;9.85;73.84;97887.81;5146742;28;20128;-82
2022/11/18 12:28:42;;;;;;;4.32;1.20;;;;;;;9.98;73.35;97876.72;5129056;28;20054;-80
2022/11/18 12:31:34;;;;;;;16.88;9.65;;;;;;;10.58;73.40;97894.00;5130735;28;20054;-82
2022/11/18 12:34:24;;;;;;;2.08;1.30;;;;;;;10.54;72.51;97898.00;5143297;28;20117;-82
2022/11/18 12:37:23;;;;;;;2.13;1.38;;;;;;;10.36;74.96;97898.19;5143369;28;20053;-81
2022/11/18 12:40:35;;;;;;;2.97;1.17;;;;;;;10.96;72.33;97897.69;5146062;28;20062;-81
2022/11/18 12:46:34;;;;;;;5.55;1.35;;;;;;;10.38;73.58;97898.88;5144949;28;20046;-83
2022/11/18 12:49:24;;;;;;;5.38;1.88;;;;;;;10.73;72.25;97892.31;5144079;28;20054;-82
2022/11/18 12:52:29;;;;;;;5.68;1.58;;;;;;;10.58;72.66;97904.63;5157398;28;20090;-82
2022/11/18 12:55:23;;;;;;;9.98;2.38;;;;;;;10.62;72.92;97886.53;5155923;28;20524;-81
2022/11/18 12:58:25;;;;;;;11.35;2.30;;;;;;;11.30;71.95;97904.47;5130027;28;20114;-81
2022/11/18 13:01:21;;;;;;;2.47;1.77;;;;;;;10.63;72.74;97904.94;5122398;28;20050;-81
2022/11/18 13:04:18;;;;;;;3.40;1.42;;;;;;;10.39;73.24;97895.22;5142800;28;20162;-81
2022/11/18 13:10:23;;;;;;;6.18;1.90;;;;;;;11.08;72.26;97914.03;5157988;28;20066;-82
2022/11/18 13:13:40;;;;;;;2.95;1.75;;;;;;;10.86;72.20;97909.47;5157955;28;20572;-82
2022/11/18 13:19:41;;;;;;;4.50;1.65;;;;;;;10.49;73.03;97905.63;5126440;28;20142;-82
2022/11/18 13:25:45;;;;;;;2.70;1.48;;;;;;;10.69;71.96;97906.88;5151019;28;20057;-82
2022/11/18 13:29:26;;;;;;;4.50;1.67;;;;;;;10.71;71.92;97904.06;5165206;28;20081;-82
2022/11/18 13:32:21;;;;;;;3.42;1.92;;;;;;;10.92;70.96;97922.88;5131971;28;20423;-82
2022/11/18 13:35:18;;;;;;;11.68;2.50;;;;;;;11.12;70.95;97904.72;5144047;28;20073;-81
2022/11/18 13:38:19;;;;;;;6.57;2.33;;;;;;;11.02;70.88;97902.28;5139998;28;20054;-82
2022/11/18 13:41:22;;;;;;;8.98;2.05;;;;;;;10.59;71.52;97906.25;5130913;28;20073;-81
2022/11/18 13:44:19;;;;;;;7.32;1.83;;;;;;;11.07;71.64;97925.66;5110765;29;20076;-81
2022/11/18 13:47:25;;;;;;;6.50;1.85;;;;;;;10.40;74.36;97927.84;5123272;28;20153;-81
2022/11/18 13:50:29;;;;;;;8.82;1.90;;;;;;;10.19;74.10;97931.00;5120486;29;20745;-81
2022/11/18 13:53:36;;;;;;;9.75;2.42;;;;;;;9.92;75.49;97913.63;5119920;29;20058;-81
2022/11/18 13:56:29;;;;;;;5.20;3.38;;;;;;;10.62;73.18;97928.94;5121777;28;20525;-81
2022/11/18 13:59:24;;;;;;;33.55;12.23;;;;;;;10.89;71.59;97912.59;5121253;29;20576;-82
2022/11/18 14:02:15;;;;;;;9.15;2.47;;;;;;;10.99;72.54;97921.22;5122135;29;20111;-83
2022/11/18 14:05:18;;;;;;;7.95;3.03;;;;;;;11.12;72.46;97936.53;5140442;28;20045;-83
2022/11/18 14:08:22;;;;;;;;;;;;;;;11.49;72.15;97929.75;5143465;28;20945;-83
2022/11/18 14:11:12;;;;;;;12.48;4.65;;;;;;;11.41;71.59;97927.13;5142694;28;20010;-82
2022/11/18 14:14:02;;;;;;;60.72;20.33;;;;;;;11.15;71.65;97912.31;5142011;28;20476;-83
2022/11/18 14:17:01;;;;;;;119.20;39.35;;;;;;;10.36;73.05;97922.03;5128843;28;20054;-83
2022/11/18 14:20:07;;;;;;;7.32;2.13;;;;;;;9.96;72.95;97920.25;5143449;28;20077;-83
2022/11/18 14:23:02;;;;;;;10.02;2.22;;;;;;;10.14;70.98;97897.06;5142496;28;20129;-84
2022/11/18 14:25:52;;;;;;;16.25;7.55;;;;;;;10.67;70.19;97940.72;5130859;28;20098;-84